Disclaimer

Please do not use the information listed here in-flight or in-navigation, as they are not provided to us by the airports but are provided by volunteers, so they might be outdated.

Search


Regions


Airport information page

Radio informations:
Tower (TWR) - 122.1 MHz
Ground (GND) - 121.95 MHz
Automatic Terminal Information Service (ATIS) - 128.35 MHz
Approach (APP) - 122.1 MHz

Airport informations:
Latitude: 37° 58' 44.40" N
Longitude: 032° 33' 42.70" E
Elevation: 3381 feet - 1031 meters
Operating hours: N/A
Operating agency: Military
Timezone: UTC+2(+3DT)
Fuel: JP-4, Wide cut turbine fuel MIL Spec T-5624

115/145 octane gasoline, leaded, MIL-L-5572F (PURPLE)

Runway information:
01/19 - 10990 x 148 feet< - >3350 x 45 meters

Recent METARs:
LTAN 202350Z 00000KT 9000 FEW040 SCT100 06/04 Q1021 NOSIG
LTAN 210050Z VRB02KT 9000 FEW040 SCT100 06/04 Q1020 NOSIG
LTAN 210050Z VRB02KT 9000 FEW040 SCT100 06/04 Q1020 NOSIG

Airport on the map: